Time;durP1;ratioP1;P1;durP2;ratioP2;P2;SDS_P1;SDS_P2;PMS_P1;PMS_P2;Temp;Humidity;BMP_temperature;BMP_pressure;BME280_temperature;BME280_humidity;BME280_pressure;Samples;Min_cycle;Max_cycle;Signal;HPM_P1;HPM_P2
2023/01/09 00:01:42;;;;;;;26.97;20.33;;;2.70;99.90;;;;;;6188368;23;20201;-78
2023/01/09 00:04:11;;;;;;;25.37;19.63;;;2.70;99.90;;;;;;6186570;23;20181;-77
2023/01/09 00:06:42;;;;;;;26.40;19.67;;;2.70;99.90;;;;;;6187397;23;20528;-79
2023/01/09 00:09:10;;;;;;;24.57;20.03;;;2.70;99.90;;;;;;6186599;23;20204;-79
2023/01/09 00:11:40;;;;;;;24.73;19.80;;;2.80;99.90;;;;;;6187891;23;20220;-78
2023/01/09 00:14:08;;;;;;;25.70;19.37;;;2.70;99.90;;;;;;6187862;23;20192;-78
2023/01/09 00:16:39;;;;;;;25.07;20.17;;;2.70;99.90;;;;;;6191431;23;20181;-77
2023/01/09 00:19:07;;;;;;;26.93;21.43;;;2.70;99.90;;;;;;6192077;23;20184;-79
2023/01/09 00:21:36;;;;;;;25.33;20.63;;;2.70;99.90;;;;;;6186567;23;20221;-77
2023/01/09 00:24:05;;;;;;;25.50;20.33;;;2.70;99.90;;;;;;6187009;23;20188;-79
2023/01/09 00:26:34;;;;;;;24.57;20.07;;;2.70;99.90;;;;;;6186518;23;20255;-79
2023/01/09 00:29:04;;;;;;;27.97;20.70;;;2.70;99.90;;;;;;6186906;23;20185;-79
2023/01/09 00:31:32;;;;;;;25.27;20.43;;;2.70;99.90;;;;;;6188857;23;20177;-76
2023/01/09 00:34:04;;;;;;;26.80;20.50;;;2.70;99.90;;;;;;6189420;23;20467;-77
2023/01/09 00:36:33;;;;;;;24.40;20.20;;;2.70;99.90;;;;;;6189413;23;20173;-78
2023/01/09 00:39:01;;;;;;;25.07;20.33;;;2.80;99.90;;;;;;6186725;23;20181;-79
2023/01/09 00:41:33;;;;;;;24.13;19.37;;;2.80;99.90;;;;;;6186946;23;20296;-78
2023/01/09 00:44:06;;;;;;;26.33;19.57;;;2.80;99.90;;;;;;6186313;23;20196;-76
2023/01/09 00:46:39;;;;;;;23.73;19.70;;;2.90;99.90;;;;;;6186879;23;20167;-77
2023/01/09 00:49:09;;;;;;;24.63;19.13;;;2.80;99.90;;;;;;6187199;23;20205;-79
2023/01/09 00:51:41;;;;;;;25.00;19.00;;;2.80;99.90;;;;;;6188443;23;20515;-78
2023/01/09 00:54:10;;;;;;;24.90;19.50;;;2.90;99.90;;;;;;6190024;23;20246;-78
2023/01/09 00:56:39;;;;;;;23.30;18.67;;;2.90;99.90;;;;;;6188654;23;20184;-77
2023/01/09 00:59:08;;;;;;;23.80;18.37;;;2.80;99.90;;;;;;6188376;23;20197;-78
2023/01/09 01:01:36;;;;;;;24.33;19.40;;;2.90;99.90;;;;;;6190131;23;20287;-80
2023/01/09 01:09:33;;;;;;;23.10;18.50;;;2.90;99.90;;;;;;6190314;23;20630;-78
2023/01/09 01:12:05;;;;;;;21.93;17.33;;;2.90;99.90;;;;;;6189417;23;20260;-80
2023/01/09 01:14:36;;;;;;;22.60;18.20;;;2.90;99.90;;;;;;6190144;23;20188;-79
2023/01/09 01:17:05;;;;;;;24.13;18.30;;;2.90;99.90;;;;;;6188628;23;20183;-78
2023/01/09 01:19:34;;;;;;;23.70;18.53;;;2.90;99.90;;;;;;6191202;23;20231;-79
2023/01/09 01:22:02;;;;;;;25.57;18.87;;;2.90;99.90;;;;;;6189658;23;20231;-80
2023/01/09 01:24:30;;;;;;;22.83;18.50;;;2.90;99.90;;;;;;6190366;23;20252;-79
2023/01/09 01:26:59;;;;;;;25.40;19.73;;;3.00;99.90;;;;;;6189000;23;20220;-78
2023/01/09 01:29:28;;;;;;;24.13;18.97;;;3.00;99.90;;;;;;6189292;23;20661;-79
2023/01/09 01:31:57;;;;;;;23.70;18.40;;;3.00;99.90;;;;;;6187631;23;20231;-80
2023/01/09 01:34:28;;;;;;;23.10;18.80;;;3.00;99.90;;;;;;6188997;23;20209;-80
2023/01/09 01:36:56;;;;;;;25.70;19.37;;;2.90;99.90;;;;;;6189130;23;20188;-79
2023/01/09 01:39:24;;;;;;;23.80;18.80;;;3.00;99.90;;;;;;6192090;23;20705;-78
2023/01/09 01:41:52;;;;;;;25.20;18.77;;;3.00;99.90;;;;;;6189092;23;20284;-79
2023/01/09 01:44:57;;;;;;;23.47;19.23;;;2.90;99.90;;;;;;6188151;23;20685;-79
2023/01/09 01:47:30;;;;;;;23.70;19.23;;;3.00;99.90;;;;;;6189252;23;20204;-79
2023/01/09 01:50:03;;;;;;;24.40;18.73;;;3.00;99.90;;;;;;6190687;23;20180;-79
2023/01/09 01:52:32;;;;;;;25.00;18.80;;;3.00;99.90;;;;;;6187022;23;20356;-80
2023/01/09 01:55:01;;;;;;;24.50;18.60;;;3.10;99.90;;;;;;6187562;23;20206;-80
2023/01/09 01:57:30;;;;;;;24.20;19.10;;;3.00;99.90;;;;;;6188486;23;20712;-80
2023/01/09 02:00:01;;;;;;;25.63;19.57;;;3.10;99.90;;;;;;6189776;23;20208;-79
2023/01/09 02:02:33;;;;;;;23.93;18.73;;;3.00;99.90;;;;;;6188833;23;20207;-79
2023/01/09 02:05:02;;;;;;;23.97;18.60;;;3.10;99.90;;;;;;6186762;23;20247;-80
2023/01/09 02:07:30;;;;;;;25.37;19.10;;;3.10;99.90;;;;;;6188171;23;20239;-80
2023/01/09 02:09:59;;;;;;;22.83;18.57;;;3.20;99.90;;;;;;6190691;23;20181;-79
2023/01/09 02:12:28;;;;;;;25.73;18.80;;;3.10;99.90;;;;;;6193075;23;20177;-79
2023/01/09 02:15:02;;;;;;;25.07;19.40;;;3.00;99.90;;;;;;6192976;23;20177;-78
2023/01/09 02:17:54;;;;;;;24.00;19.00;;;3.10;99.90;;;;;;6191952;23;20185;-80
2023/01/09 02:20:37;;;;;;;24.90;19.23;;;3.10;99.90;;;;;;6195646;23;20183;-79
2023/01/09 02:23:46;;;;;;;24.40;18.73;;;3.10;99.90;;;;;;6198777;23;20200;-77
2023/01/09 02:26:35;;;;;;;24.83;19.87;;;3.10;99.90;;;;;;6196351;23;20271;-79
2023/01/09 02:29:35;;;;;;;24.07;18.30;;;3.10;99.90;;;;;;6180578;23;20204;-78
2023/01/09 02:32:10;;;;;;;23.77;18.07;;;3.10;99.90;;;;;;6190134;23;20184;-79
2023/01/09 02:34:47;;;;;;;25.00;18.73;;;3.10;99.90;;;;;;6190156;23;20197;-77
2023/01/09 02:37:25;;;;;;;24.77;18.90;;;3.10;99.90;;;;;;6187593;23;20187;-79
2023/01/09 02:40:03;;;;;;;24.73;18.40;;;3.10;99.90;;;;;;6189825;23;20712;-78
2023/01/09 02:42:33;;;;;;;22.90;17.80;;;3.10;99.90;;;;;;6189298;23;20208;-77
2023/01/09 02:45:01;;;;;;;24.60;17.50;;;3.10;99.90;;;;;;6187087;23;20263;-78
2023/01/09 02:47:41;;;;;;;23.60;17.77;;;3.10;99.90;;;;;;6185185;23;20239;-79
2023/01/09 02:50:14;;;;;;;21.43;17.40;;;3.10;99.90;;;;;;6185019;23;20601;-79
2023/01/09 02:53:00;;;;;;;24.13;17.20;;;3.10;99.90;;;;;;6185416;23;20601;-80
2023/01/09 02:55:40;;;;;;;21.97;17.10;;;3.10;99.90;;;;;;6185527;23;20193;-77
2023/01/09 02:58:19;;;;;;;19.83;16.83;;;3.10;99.90;;;;;;6185681;23;20665;-77
2023/01/09 03:00:57;;;;;;;21.87;16.73;;;3.10;99.90;;;;;;6185610;23;20438;-79
2023/01/09 03:03:36;;;;;;;20.13;16.07;;;3.10;99.90;;;;;;6185153;23;20223;-79
2023/01/09 03:06:10;;;;;;;21.00;14.93;;;3.10;99.90;;;;;;6183264;23;20198;-79
2023/01/09 03:08:42;;;;;;;16.67;14.03;;;3.20;99.90;;;;;;6193120;23;20234;-80
2023/01/09 03:11:10;;;;;;;16.97;14.07;;;3.20;99.90;;;;;;6201914;23;20166;-80
2023/01/09 03:13:44;;;;;;;17.97;14.50;;;3.20;99.90;;;;;;6201465;23;20173;-79
2023/01/09 03:16:16;;;;;;;17.67;14.00;;;3.20;99.90;;;;;;6201573;23;20172;-78
2023/01/09 03:18:52;;;;;;;17.23;13.20;;;3.20;99.90;;;;;;6201594;23;20286;-78
2023/01/09 03:21:21;;;;;;;15.90;12.20;;;3.20;99.90;;;;;;6200888;23;20215;-79
2023/01/09 03:23:52;;;;;;;16.33;13.47;;;3.20;99.90;;;;;;6200366;23;20233;-78
2023/01/09 03:26:20;;;;;;;15.63;12.33;;;3.20;99.90;;;;;;6200706;23;20169;-79
2023/01/09 03:28:49;;;;;;;17.03;13.10;;;3.20;99.90;;;;;;6200857;23;20186;-78
2023/01/09 03:31:17;;;;;;;16.13;12.80;;;3.30;99.90;;;;;;6200696;23;20183;-78
2023/01/09 03:33:45;;;;;;;15.60;12.93;;;3.20;99.90;;;;;;6201001;23;20188;-79
2023/01/09 03:36:17;;;;;;;15.83;13.20;;;3.20;99.90;;;;;;6200433;23;20200;-80
2023/01/09 03:38:45;;;;;;;15.17;12.20;;;3.20;99.90;;;;;;6200269;23;20208;-78
2023/01/09 03:41:13;;;;;;;15.30;12.50;;;3.20;99.90;;;;;;6197265;23;20192;-76
2023/01/09 03:43:42;;;;;;;15.03;11.93;;;3.20;99.90;;;;;;6201291;23;20197;-79
2023/01/09 03:46:10;;;;;;;13.43;11.07;;;3.20;99.90;;;;;;6198170;23;20204;-80
2023/01/09 03:48:38;;;;;;;14.80;11.07;;;3.30;99.90;;;;;;6200301;23;20201;-80
2023/01/09 03:51:06;;;;;;;12.13;10.53;;;3.30;99.90;;;;;;6201609;23;20192;-79
2023/01/09 03:53:36;;;;;;;15.33;10.77;;;3.30;99.90;;;;;;6201433;23;20188;-79
2023/01/09 03:56:04;;;;;;;12.97;10.10;;;3.30;99.90;;;;;;6200804;23;20188;-79
2023/01/09 03:58:32;;;;;;;13.10;10.17;;;3.30;99.90;;;;;;6201128;23;20184;-80
2023/01/09 04:01:03;;;;;;;12.60;10.27;;;3.30;99.90;;;;;;6199896;23;20181;-79
2023/01/09 04:03:31;;;;;;;12.80;10.07;;;3.40;99.90;;;;;;6197224;23;20247;-80
2023/01/09 04:06:00;;;;;;;10.50;9.23;;;3.40;99.90;;;;;;6193592;23;20189;-80
2023/01/09 04:08:29;;;;;;;12.23;8.83;;;3.50;99.90;;;;;;6187411;23;20268;-80
2023/01/09 04:10:58;;;;;;;11.17;8.80;;;3.40;99.90;;;;;;6187283;23;20235;-78
2023/01/09 04:13:27;;;;;;;11.83;8.30;;;3.40;99.90;;;;;;6186781;23;20720;-76
2023/01/09 04:15:55;;;;;;;11.60;8.93;;;3.50;99.90;;;;;;6185922;23;20200;-79
2023/01/09 04:18:24;;;;;;;10.30;8.07;;;3.40;99.90;;;;;;6187308;23;20647;-79
2023/01/09 04:20:52;;;;;;;8.93;7.23;;;3.50;99.90;;;;;;6189777;23;20270;-79
2023/01/09 04:23:22;;;;;;;9.63;7.47;;;3.50;99.90;;;;;;6189001;23;20200;-79
2023/01/09 04:25:50;;;;;;;9.50;7.47;;;3.50;99.90;;;;;;6189290;23;20258;-80
2023/01/09 04:28:20;;;;;;;9.00;7.30;;;3.40;99.90;;;;;;6199278;23;20188;-78
2023/01/09 04:30:48;;;;;;;9.63;7.13;;;3.40;99.90;;;;;;6203500;23;20188;-80
2023/01/09 04:33:16;;;;;;;9.70;7.63;;;3.40;99.90;;;;;;6203158;23;20232;-79
2023/01/09 04:35:45;;;;;;;9.83;7.40;;;3.50;99.90;;;;;;6202969;23;20192;-77
2023/01/09 04:38:13;;;;;;;8.60;7.30;;;3.50;99.90;;;;;;6204199;23;20612;-77
2023/01/09 04:40:41;;;;;;;10.40;6.60;;;3.50;99.90;;;;;;6204010;23;20192;-79
2023/01/09 04:43:10;;;;;;;8.87;6.90;;;3.50;99.90;;;;;;6203499;23;20205;-79
2023/01/09 04:45:40;;;;;;;8.13;6.73;;;3.50;99.90;;;;;;6203254;23;20286;-79
2023/01/09 04:48:09;;;;;;;8.97;6.80;;;3.50;99.90;;;;;;6201835;23;20252;-78
2023/01/09 04:50:37;;;;;;;8.73;6.30;;;3.60;99.90;;;;;;6203313;23;20187;-78
2023/01/09 04:53:06;;;;;;;7.57;6.43;;;3.60;99.90;;;;;;6203551;23;20616;-80
2023/01/09 04:55:34;;;;;;;8.93;6.63;;;3.60;99.90;;;;;;6202618;23;20640;-78
2023/01/09 04:58:02;;;;;;;7.53;6.00;;;3.70;99.90;;;;;;6202711;23;20185;-80
2023/01/09 05:00:31;;;;;;;7.97;5.70;;;3.70;99.90;;;;;;6202861;23;20181;-79
2023/01/09 05:03:01;;;;;;;9.20;6.20;;;3.70;99.90;;;;;;6200504;23;20193;-79
2023/01/09 05:05:29;;;;;;;6.63;5.40;;;3.70;99.90;;;;;;6199824;23;20264;-80
2023/01/09 05:07:58;;;;;;;6.73;5.20;;;3.80;99.90;;;;;;6199124;23;20181;-79
2023/01/09 05:10:26;;;;;;;6.13;4.57;;;3.90;99.90;;;;;;6199894;23;20184;-78
2023/01/09 05:12:54;;;;;;;6.83;4.40;;;3.90;99.90;;;;;;6200323;23;20181;-80
2023/01/09 05:15:23;;;;;;;5.27;3.87;;;4.10;99.90;;;;;;6201893;23;20215;-79
2023/01/09 05:17:51;;;;;;;6.77;3.97;;;4.20;99.90;;;;;;6202660;23;20192;-77
2023/01/09 05:20:21;;;;;;;4.20;3.30;;;4.30;99.90;;;;;;6202295;23;20180;-79
2023/01/09 05:22:49;;;;;;;4.53;3.20;;;4.50;99.90;;;;;;6199604;23;20177;-79
2023/01/09 05:25:17;;;;;;;4.00;3.23;;;4.60;99.90;;;;;;6199145;23;20181;-78
2023/01/09 05:27:46;;;;;;;3.67;3.13;;;4.70;99.90;;;;;;6197190;23;20256;-80
2023/01/09 05:30:14;;;;;;;4.73;3.03;;;4.90;99.90;;;;;;6189774;23;20215;-80
2023/01/09 05:32:45;;;;;;;2.90;2.60;;;4.90;99.90;;;;;;6188143;23;20192;-81
2023/01/09 05:35:13;;;;;;;4.63;2.90;;;5.00;99.90;;;;;;6194188;23;20240;-80
2023/01/09 05:37:43;;;;;;;3.80;3.00;;;5.10;99.90;;;;;;6202056;23;20181;-79
2023/01/09 05:40:12;;;;;;;4.00;2.73;;;5.10;99.90;;;;;;6204188;23;20181;-80
2023/01/09 05:42:41;;;;;;;5.03;2.80;;;5.10;99.90;;;;;;6204205;23;20169;-79
2023/01/09 05:45:11;;;;;;;2.97;2.60;;;5.20;99.90;;;;;;6203137;23;20223;-80
2023/01/09 05:47:40;;;;;;;3.67;2.70;;;5.20;99.90;;;;;;6204210;23;20201;-79
2023/01/09 05:50:09;;;;;;;2.30;2.10;;;5.30;99.90;;;;;;6205260;23;20181;-79
2023/01/09 05:52:37;;;;;;;3.33;1.90;;;5.40;99.90;;;;;;6205938;23;20181;-81
2023/01/09 05:55:08;;;;;;;2.23;1.70;;;5.40;99.90;;;;;;6204936;23;20250;-79
2023/01/09 05:57:37;;;;;;;1.50;1.30;;;5.60;99.90;;;;;;6204524;23;20185;-78
2023/01/09 06:00:06;;;;;;;1.63;1.40;;;5.70;99.90;;;;;;6205876;23;20209;-78
2023/01/09 06:02:34;;;;;;;1.30;1.20;;;5.80;99.90;;;;;;6204940;23;20197;-79
2023/01/09 06:05:03;;;;;;;1.20;1.10;;;5.90;99.90;;;;;;6207055;23;20493;-82
2023/01/09 06:07:33;;;;;;;1.47;1.00;;;5.90;99.90;;;;;;6203838;23;20200;-78
2023/01/09 06:10:02;;;;;;;1.10;0.70;;;6.00;99.90;;;;;;6207268;23;20196;-80
2023/01/09 06:12:32;;;;;;;0.77;0.77;;;6.10;99.90;;;;;;6207796;23;20207;-79
2023/01/09 06:15:00;;;;;;;1.23;0.53;;;6.20;99.90;;;;;;6207906;23;20169;-80
2023/01/09 06:17:28;;;;;;;0.50;0.50;;;6.20;99.90;;;;;;6207781;23;20180;-80
2023/01/09 06:19:56;;;;;;;0.80;0.80;;;6.20;99.90;;;;;;6206373;23;20180;-81
2023/01/09 06:22:25;;;;;;;1.20;0.70;;;6.30;99.90;;;;;;6204499;23;20188;-78
2023/01/09 06:24:54;;;;;;;0.70;0.70;;;6.30;99.90;;;;;;6204786;23;20349;-79
2023/01/09 06:27:22;;;;;;;0.70;0.67;;;6.20;99.90;;;;;;6202793;23;20180;-80
2023/01/09 06:29:51;;;;;;;0.83;0.70;;;6.20;99.90;;;;;;6200873;23;20200;-78
2023/01/09 06:32:19;;;;;;;0.60;0.60;;;6.10;99.90;;;;;;6201362;23;20256;-79
2023/01/09 06:34:48;;;;;;;0.40;0.40;;;6.10;99.90;;;;;;6202358;23;20204;-79
2023/01/09 06:37:17;;;;;;;0.50;0.50;;;6.10;99.90;;;;;;6204869;23;20188;-81
2023/01/09 06:39:45;;;;;;;0.53;0.53;;;6.00;99.90;;;;;;6209080;23;20200;-80
2023/01/09 06:42:13;;;;;;;0.63;0.57;;;6.00;99.90;;;;;;6206406;23;20184;-79
2023/01/09 06:44:41;;;;;;;0.70;0.70;;;6.00;99.90;;;;;;6199170;23;20279;-77
2023/01/09 06:47:11;;;;;;;0.80;0.73;;;5.90;99.90;;;;;;6189274;23;20181;-78
2023/01/09 06:49:39;;;;;;;0.70;0.70;;;5.90;99.90;;;;;;6191832;23;20223;-80
2023/01/09 06:52:08;;;;;;;0.50;0.50;;;6.00;99.90;;;;;;6192607;23;20526;-78
2023/01/09 06:54:36;;;;;;;0.43;0.40;;;6.10;99.90;;;;;;6192195;23;20200;-78
2023/01/09 06:57:04;;;;;;;0.37;0.37;;;6.20;99.90;;;;;;6190064;23;20239;-80
2023/01/09 06:59:33;;;;;;;0.40;0.40;;;6.20;99.90;;;;;;6192102;23;20181;-78
2023/01/09 07:02:01;;;;;;;1.50;0.30;;;6.20;99.90;;;;;;6192513;23;20180;-77
2023/01/09 07:04:31;;;;;;;0.50;0.40;;;6.20;99.90;;;;;;6187370;23;20283;-78
2023/01/09 07:06:59;;;;;;;0.30;0.30;;;6.20;99.90;;;;;;6191326;23;20239;-80
2023/01/09 07:09:27;;;;;;;0.60;0.60;;;6.20;99.90;;;;;;6191806;23;20181;-78
2023/01/09 07:11:56;;;;;;;0.97;0.50;;;6.20;99.90;;;;;;6188845;23;20637;-78
2023/01/09 07:14:24;;;;;;;1.20;0.70;;;6.10;99.90;;;;;;6188092;23;20176;-77
2023/01/09 07:16:52;;;;;;;0.63;0.50;;;6.10;99.90;;;;;;6185625;23;20187;-77
2023/01/09 07:19:20;;;;;;;0.40;0.40;;;6.00;99.90;;;;;;6185449;23;20180;-79
2023/01/09 07:21:50;;;;;;;0.40;0.40;;;6.00;99.90;;;;;;6187756;23;20237;-77
2023/01/09 07:24:18;;;;;;;0.30;0.23;;;6.00;99.90;;;;;;6185517;23;20197;-76
2023/01/09 07:26:47;;;;;;;0.30;0.30;;;6.00;99.90;;;;;;6186312;23;20197;-79
2023/01/09 07:29:15;;;;;;;0.50;0.30;;;6.00;99.90;;;;;;6189794;23;20268;-80
2023/01/09 07:31:43;;;;;;;0.60;0.30;;;6.00;99.90;;;;;;6186240;23;20197;-78
2023/01/09 07:34:11;;;;;;;1.10;0.30;;;6.00;99.90;;;;;;6186789;23;20255;-77
2023/01/09 07:36:40;;;;;;;0.83;0.50;;;5.90;99.90;;;;;;6186516;23;20181;-79
2023/01/09 07:39:09;;;;;;;0.30;0.30;;;5.90;99.90;;;;;;6186309;23;20185;-77
2023/01/09 07:41:38;;;;;;;1.13;0.50;;;5.90;99.90;;;;;;6187113;23;20188;-78
2023/01/09 07:44:06;;;;;;;0.60;0.60;;;5.80;99.90;;;;;;6186305;23;20679;-79
2023/01/09 07:46:37;;;;;;;0.47;0.40;;;5.70;99.90;;;;;;6184580;23;20263;-78
2023/01/09 07:49:07;;;;;;;0.97;0.80;;;5.70;99.90;;;;;;6185035;23;20201;-76
2023/01/09 07:51:37;;;;;;;0.90;0.90;;;5.60;99.90;;;;;;6185009;23;20272;-78
2023/01/09 07:54:06;;;;;;;0.60;0.60;;;5.50;99.90;;;;;;6186843;23;20180;-77
2023/01/09 07:56:36;;;;;;;5.30;0.50;;;5.50;99.90;;;;;;6187428;23;20185;-78
2023/01/09 07:59:04;;;;;;;0.93;0.33;;;5.30;99.90;;;;;;6188898;23;20212;-77
2023/01/09 08:01:33;;;;;;;0.50;0.40;;;5.30;99.90;;;;;;6187671;23;20208;-76
2023/01/09 08:04:01;;;;;;;0.60;0.40;;;5.30;99.90;;;;;;6187596;23;20264;-77
2023/01/09 08:06:31;;;;;;;0.40;0.40;;;5.20;99.90;;;;;;6187322;23;20246;-77
2023/01/09 08:08:59;;;;;;;0.27;0.27;;;5.20;99.90;;;;;;6187453;23;20181;-77
2023/01/09 08:11:27;;;;;;;0.30;0.30;;;5.20;99.90;;;;;;6189718;23;20181;-77
2023/01/09 08:13:58;;;;;;;0.40;0.40;;;5.20;99.90;;;;;;6186791;23;20181;-78
2023/01/09 08:16:26;;;;;;;0.40;0.33;;;5.20;99.90;;;;;;6186513;23;20269;-77
2023/01/09 08:18:54;;;;;;;0.40;0.40;;;5.20;99.90;;;;;;6187010;23;20259;-76
2023/01/09 08:21:22;;;;;;;0.30;0.30;;;5.20;99.90;;;;;;6187969;23;20193;-79
2023/01/09 08:23:50;;;;;;;1.03;0.40;;;5.20;99.90;;;;;;6188648;23;20231;-78
2023/01/09 08:26:19;;;;;;;0.37;0.30;;;5.30;99.90;;;;;;6186830;23;20657;-78
2023/01/09 08:28:48;;;;;;;0.30;0.30;;;5.30;99.90;;;;;;6188696;23;20181;-78
2023/01/09 08:31:17;;;;;;;0.80;0.50;;;5.30;99.90;;;;;;6187906;23;20184;-79
2023/01/09 08:33:46;;;;;;;0.30;0.30;;;5.30;99.90;;;;;;6188415;23;20180;-78
2023/01/09 08:36:14;;;;;;;0.80;0.80;;;5.30;99.90;;;;;;6189672;23;20432;-79
2023/01/09 08:38:45;;;;;;;1.00;0.70;;;5.30;99.90;;;;;;6189297;23;20188;-76
2023/01/09 08:49:35;;;;;;;2.20;2.00;;;5.10;99.90;;;;;;6187395;23;20205;-76
2023/01/09 08:52:03;;;;;;;1.97;0.90;;;5.10;99.90;;;;;;6186603;23;20236;-79
2023/01/09 08:54:35;;;;;;;1.00;0.80;;;5.00;99.90;;;;;;6188048;23;20512;-80
2023/01/09 08:57:03;;;;;;;0.50;0.40;;;5.00;99.90;;;;;;6186766;23;20688;-78
2023/01/09 08:59:32;;;;;;;0.80;0.40;;;4.90;99.90;;;;;;6187345;23;20181;-79
2023/01/09 09:02:02;;;;;;;0.40;0.40;;;4.80;99.90;;;;;;6188048;23;20251;-79
2023/01/09 09:04:30;;;;;;;0.50;0.50;;;4.80;99.90;;;;;;6186215;23;20256;-79
2023/01/09 09:06:58;;;;;;;1.83;1.00;;;4.80;99.90;;;;;;6183971;23;20188;-78
2023/01/09 09:09:27;;;;;;;1.07;0.67;;;4.80;99.90;;;;;;6187417;23;20228;-75
2023/01/09 09:11:55;;;;;;;0.50;0.50;;;4.90;99.90;;;;;;6186521;23;20180;-79
2023/01/09 09:17:11;;;;;;;19.67;17.53;;;5.00;99.90;;;;;;6187251;23;20241;-79
2023/01/09 09:19:41;;;;;;;6.43;5.07;;;5.10;99.90;;;;;;6187033;23;20673;-80
2023/01/09 09:22:09;;;;;;;2.13;1.90;;;5.20;99.90;;;;;;6187705;23;20192;-81
2023/01/09 09:24:38;;;;;;;0.80;0.80;;;5.10;99.90;;;;;;6187599;23;20188;-80
2023/01/09 09:27:06;;;;;;;1.13;1.03;;;5.20;99.90;;;;;;6188801;23;20181;-80
2023/01/09 09:29:35;;;;;;;1.93;1.70;;;5.20;99.90;;;;;;6190165;23;20187;-79
2023/01/09 09:32:03;;;;;;;1.70;1.40;;;5.30;99.90;;;;;;6188061;23;20499;-78
2023/01/09 09:34:33;;;;;;;1.43;1.00;;;5.30;99.90;;;;;;6186792;23;20177;-78
2023/01/09 09:37:01;;;;;;;1.60;1.50;;;5.30;99.90;;;;;;6185858;23;20173;-79
2023/01/09 09:39:30;;;;;;;1.30;1.20;;;5.50;99.90;;;;;;6186224;23;20186;-80
2023/01/09 09:45:09;;;;;;;1.87;1.37;;;5.60;99.90;;;;;;6185279;23;20215;-78
2023/01/09 09:47:52;;;;;;;6.20;5.13;;;5.70;99.90;;;;;;6184642;23;20208;-76
2023/01/09 09:50:38;;;;;;;5.70;5.03;;;5.70;99.90;;;;;;6186310;23;20200;-77
2023/01/09 09:53:13;;;;;;;3.40;2.33;;;5.80;99.90;;;;;;6186485;23;20183;-76
2023/01/09 09:55:44;;;;;;;3.73;3.30;;;5.80;99.90;;;;;;6185811;23;20184;-78
2023/01/09 09:58:21;;;;;;;1.03;0.60;;;5.80;99.90;;;;;;6185820;23;20185;-74
2023/01/09 10:00:50;;;;;;;1.23;1.00;;;5.80;99.90;;;;;;6185497;23;20181;-75
2023/01/09 10:03:27;;;;;;;1.27;0.70;;;5.90;99.90;;;;;;6186229;23;20536;-77
2023/01/09 10:06:05;;;;;;;1.93;0.90;;;5.80;99.90;;;;;;6186616;23;20228;-77
2023/01/09 10:08:43;;;;;;;3.80;0.93;;;5.90;99.90;;;;;;6188941;23;20556;-78
2023/01/09 10:11:17;;;;;;;0.57;0.57;;;5.90;99.90;;;;;;6186554;23;20216;-77
2023/01/09 10:16:48;;;;;;;1.03;0.63;;;5.90;99.90;;;;;;6185190;23;20165;-76
2023/01/09 10:19:31;;;;;;;2.57;0.63;;;5.80;99.90;;;;;;6186037;23;20184;-77
2023/01/09 10:22:10;;;;;;;1.23;0.80;;;5.90;99.90;;;;;;6185480;23;20692;-74
2023/01/09 10:24:51;;;;;;;3.63;0.87;;;6.00;99.90;;;;;;6185585;23;20203;-76
2023/01/09 10:27:31;;;;;;;6.50;5.63;;;6.00;99.90;;;;;;6191589;23;20288;-78
2023/01/09 10:30:24;;;;;;;16.47;12.90;;;6.00;99.90;;;;;;6197292;23;20185;-76
2023/01/09 10:33:03;;;;;;;1.97;0.90;;;6.00;99.90;;;;;;6190105;23;20181;-79
2023/01/09 10:35:56;;;;;;;2.97;1.60;;;6.00;99.90;;;;;;6187120;23;20216;-79
2023/01/09 10:38:31;;;;;;;3.70;1.70;;;6.00;99.90;;;;;;6189296;23;20208;-79
2023/01/09 10:41:07;;;;;;;7.00;3.70;;;6.00;99.90;;;;;;6185624;23;20688;-79
2023/01/09 10:43:43;;;;;;;3.63;2.20;;;6.00;99.90;;;;;;6185331;23;20245;-76
2023/01/09 10:46:18;;;;;;;2.83;1.03;;;6.00;99.90;;;;;;6186991;23;20223;-78
2023/01/09 10:48:51;;;;;;;4.13;1.30;;;6.00;99.90;;;;;;6187732;23;20184;-75
2023/01/09 10:51:21;;;;;;;3.63;1.63;;;6.20;99.90;;;;;;6185992;23;20181;-77
2023/01/09 10:53:54;;;;;;;5.57;1.80;;;6.30;99.90;;;;;;6186347;23;20181;-77
2023/01/09 10:56:25;;;;;;;5.30;1.80;;;6.30;99.90;;;;;;6185558;23;20169;-78
2023/01/09 10:58:55;;;;;;;6.50;1.70;;;6.40;99.90;;;;;;6186800;23;20201;-75
2023/01/09 11:01:26;;;;;;;6.03;1.47;;;6.30;99.90;;;;;;6186709;23;20240;-76
2023/01/09 11:03:57;;;;;;;5.20;1.50;;;6.20;99.90;;;;;;6187589;23;20215;-80
2023/01/09 11:06:32;;;;;;;3.73;1.37;;;6.30;99.90;;;;;;6186201;23;20201;-76
2023/01/09 11:09:03;;;;;;;2.17;1.40;;;6.30;99.90;;;;;;6186864;23;20168;-81
2023/01/09 11:11:37;;;;;;;5.70;1.53;;;6.30;99.90;;;;;;6186423;23;20177;-79
2023/01/09 11:14:12;;;;;;;4.90;1.37;;;6.20;99.90;;;;;;6185899;23;20183;-75
2023/01/09 11:16:51;;;;;;;3.50;1.40;;;6.30;99.90;;;;;;6184265;23;20570;-76
2023/01/09 11:19:19;;;;;;;4.70;1.50;;;6.30;99.90;;;;;;6185206;23;20161;-77
2023/01/09 11:21:48;;;;;;;4.17;1.27;;;6.20;99.90;;;;;;6184796;23;20187;-77
2023/01/09 11:24:30;;;;;;;4.17;1.40;;;6.20;99.90;;;;;;6185127;23;20236;-76
2023/01/09 11:27:26;;;;;;;4.37;1.37;;;6.30;99.90;;;;;;6185011;23;20219;-74
2023/01/09 11:30:15;;;;;;;3.83;1.00;;;6.40;99.90;;;;;;6190026;23;20177;-78
2023/01/09 11:32:45;;;;;;;3.93;1.10;;;6.50;99.90;;;;;;6189538;23;20185;-75
2023/01/09 11:35:25;;;;;;;3.97;1.20;;;6.40;99.90;;;;;;6187993;23;20654;-75
2023/01/09 11:38:06;;;;;;;1.87;1.10;;;6.50;99.90;;;;;;6188942;23;20674;-76
2023/01/09 11:40:46;;;;;;;4.30;0.97;;;6.60;99.90;;;;;;6187753;23;20234;-77
2023/01/09 11:43:29;;;;;;;2.20;1.20;;;6.60;99.90;;;;;;6187990;23;20211;-76
2023/01/09 11:45:59;;;;;;;3.80;1.07;;;6.60;99.90;;;;;;6188614;23;20188;-76
2023/01/09 11:48:38;;;;;;;5.93;1.93;;;6.60;99.90;;;;;;6189341;23;20251;-73
2023/01/09 11:51:18;;;;;;;3.20;1.07;;;6.70;99.90;;;;;;6188623;23;20174;-74
2023/01/09 11:53:58;;;;;;;3.43;1.10;;;6.70;99.90;;;;;;6187776;23;20187;-75
2023/01/09 11:56:27;;;;;;;3.07;0.90;;;6.80;99.90;;;;;;6189184;23;20160;-75
2023/01/09 11:58:56;;;;;;;4.37;1.10;;;6.80;99.90;;;;;;6188985;23;20219;-76
2023/01/09 12:01:59;;;;;;;3.27;1.30;;;6.80;99.90;;;;;;6189818;23;20542;-75
2023/01/09 12:04:33;;;;;;;3.27;1.63;;;6.90;99.90;;;;;;6188799;23;20267;-78
2023/01/09 12:07:23;;;;;;;5.17;1.30;;;6.90;99.90;;;;;;6190390;23;20299;-79
2023/01/09 12:09:58;;;;;;;2.63;1.50;;;6.90;99.90;;;;;;6191735;23;20598;-77
2023/01/09 12:12:35;;;;;;;3.93;0.93;;;6.90;99.90;;;;;;6189260;23;20203;-76
2023/01/09 12:15:23;;;;;;;3.03;1.13;;;7.00;99.90;;;;;;6192646;23;20256;-75
2023/01/09 12:18:22;;;;;;;3.77;1.10;;;7.00;99.90;;;;;;6193895;23;20214;-75
2023/01/09 12:21:08;;;;;;;3.60;1.03;;;7.10;99.90;;;;;;6209809;23;20172;-77
2023/01/09 12:23:51;;;;;;;2.30;1.30;;;7.10;99.90;;;;;;6206154;23;20165;-79
2023/01/09 12:26:24;;;;;;;8.33;3.47;;;7.10;99.90;;;;;;6200315;23;20228;-76
2023/01/09 12:29:16;;;;;;;2.03;1.10;;;6.90;99.90;;;;;;6206324;23;20177;-79
2023/01/09 12:32:04;;;;;;;3.53;1.13;;;6.90;99.90;;;;;;6204889;23;20208;-77
2023/01/09 12:34:47;;;;;;;1.10;0.83;;;6.90;99.90;;;;;;6200873;23;20177;-77
2023/01/09 12:37:36;;;;;;;4.60;1.00;;;7.00;99.90;;;;;;6202742;23;20181;-75
2023/01/09 12:40:22;;;;;;;3.10;1.10;;;7.10;99.90;;;;;;6205940;23;20165;-78
2023/01/09 12:42:56;;;;;;;3.43;1.03;;;7.00;99.90;;;;;;6204225;23;20169;-75
2023/01/09 12:45:52;;;;;;;2.07;0.80;;;6.90;99.90;;;;;;6205583;23;20172;-76
2023/01/09 12:48:34;;;;;;;3.07;0.80;;;6.90;99.90;;;;;;6201097;23;20205;-77
2023/01/09 12:51:14;;;;;;;2.37;0.90;;;6.90;99.90;;;;;;6199434;23;20173;-77
2023/01/09 12:53:45;;;;;;;2.83;0.90;;;6.90;99.90;;;;;;6198508;23;20169;-78
2023/01/09 12:56:18;;;;;;;2.60;0.83;;;6.90;99.90;;;;;;6204549;23;20216;-76
2023/01/09 12:58:51;;;;;;;3.87;0.80;;;6.90;99.90;;;;;;6201998;23;20174;-78
2023/01/09 13:01:25;;;;;;;2.80;0.90;;;6.90;99.90;;;;;;6200226;23;20169;-77
2023/01/09 13:04:00;;;;;;;4.70;1.10;;;6.90;99.90;;;;;;6210092;23;20900;-76
2023/01/09 13:06:31;;;;;;;1.53;0.63;;;6.90;99.90;;;;;;6208030;23;20211;-78
2023/01/09 13:09:12;;;;;;;3.30;0.90;;;7.00;99.90;;;;;;6195317;23;20177;-78
2023/01/09 13:11:47;;;;;;;4.13;1.10;;;6.90;99.90;;;;;;6197955;23;20196;-78
2023/01/09 13:14:21;;;;;;;3.23;0.90;;;7.00;99.90;;;;;;6193814;23;20228;-79
2023/01/09 13:16:54;;;;;;;2.03;1.00;;;7.10;99.90;;;;;;6191550;23;20271;-77
2023/01/09 13:19:27;;;;;;;2.70;1.30;;;7.00;99.90;;;;;;6195079;23;20626;-78
2023/01/09 13:21:58;;;;;;;4.43;1.43;;;7.10;99.90;;;;;;6193321;23;20255;-76
2023/01/09 13:24:34;;;;;;;3.87;1.20;;;7.00;99.90;;;;;;6199711;23;20244;-77
2023/01/09 13:27:05;;;;;;;2.70;1.17;;;7.00;99.90;;;;;;6201473;23;20177;-79
2023/01/09 13:29:37;;;;;;;4.30;1.37;;;7.00;99.90;;;;;;6197180;23;20177;-77
2023/01/09 13:32:28;;;;;;;3.93;1.40;;;6.90;99.90;;;;;;6195638;23;20188;-76
2023/01/09 13:34:57;;;;;;;4.50;1.00;;;6.90;99.90;;;;;;6193651;23;20193;-76
2023/01/09 13:37:27;;;;;;;2.67;1.10;;;6.90;99.90;;;;;;6187419;23;20260;-79
2023/01/09 13:40:02;;;;;;;2.77;1.07;;;6.90;99.90;;;;;;6191589;23;20203;-80